sensor_id;sensor_type;location;lat;lon;timestamp;P1;durP1;ratioP1;P2;durP2;ratioP2
57107;SDS011;42987;52.916;6.542;2024-01-30T00:00:24;28.13;;;25.35;;
57107;SDS011;42987;52.916;6.542;2024-01-30T00:02:50;28.80;;;25.90;;
57107;SDS011;42987;52.916;6.542;2024-01-30T00:05:15;27.73;;;24.92;;
57107;SDS011;42987;52.916;6.542;2024-01-30T00:07:41;30.10;;;27.13;;
57107;SDS011;42987;52.916;6.542;2024-01-30T00:10:07;30.17;;;27.05;;
57107;SDS011;42987;52.916;6.542;2024-01-30T00:12:33;30.42;;;27.58;;
57107;SDS011;42987;52.916;6.542;2024-01-30T00:14:59;27.80;;;25.00;;
57107;SDS011;42987;52.916;6.542;2024-01-30T00:17:25;27.50;;;24.70;;
57107;SDS011;42987;52.916;6.542;2024-01-30T00:19:51;27.08;;;24.45;;
57107;SDS011;42987;52.916;6.542;2024-01-30T00:22:17;32.08;;;25.50;;
57107;SDS011;42987;52.916;6.542;2024-01-30T00:24:43;27.02;;;24.30;;
57107;SDS011;42987;52.916;6.542;2024-01-30T00:27:08;27.35;;;24.55;;
57107;SDS011;42987;52.916;6.542;2024-01-30T00:29:34;28.08;;;25.17;;
57107;SDS011;42987;52.916;6.542;2024-01-30T00:32:03;28.67;;;25.80;;
57107;SDS011;42987;52.916;6.542;2024-01-30T00:34:29;28.05;;;25.23;;
57107;SDS011;42987;52.916;6.542;2024-01-30T00:36:55;28.30;;;25.60;;
57107;SDS011;42987;52.916;6.542;2024-01-30T00:39:20;27.50;;;24.63;;
57107;SDS011;42987;52.916;6.542;2024-01-30T00:41:46;27.02;;;24.27;;
57107;SDS011;42987;52.916;6.542;2024-01-30T00:44:12;28.13;;;25.25;;
57107;SDS011;42987;52.916;6.542;2024-01-30T00:46:38;28.63;;;25.73;;
57107;SDS011;42987;52.916;6.542;2024-01-30T00:49:04;28.30;;;25.25;;
57107;SDS011;42987;52.916;6.542;2024-01-30T00:51:29;26.75;;;24.15;;
57107;SDS011;42987;52.916;6.542;2024-01-30T00:53:58;29.48;;;26.52;;
57107;SDS011;42987;52.916;6.542;2024-01-30T00:56:24;27.38;;;24.58;;
57107;SDS011;42987;52.916;6.542;2024-01-30T00:58:49;28.48;;;25.70;;
57107;SDS011;42987;52.916;6.542;2024-01-30T01:01:15;29.67;;;26.73;;
57107;SDS011;42987;52.916;6.542;2024-01-30T01:03:41;28.25;;;25.55;;
57107;SDS011;42987;52.916;6.542;2024-01-30T01:06:08;29.33;;;26.45;;
57107;SDS011;42987;52.916;6.542;2024-01-30T01:08:34;30.52;;;26.67;;
57107;SDS011;42987;52.916;6.542;2024-01-30T01:11:00;29.60;;;26.83;;
57107;SDS011;42987;52.916;6.542;2024-01-30T01:13:26;30.20;;;27.23;;
57107;SDS011;42987;52.916;6.542;2024-01-30T01:15:52;27.15;;;24.42;;
57107;SDS011;42987;52.916;6.542;2024-01-30T01:18:17;28.30;;;25.60;;
57107;SDS011;42987;52.916;6.542;2024-01-30T01:20:43;28.05;;;25.15;;
57107;SDS011;42987;52.916;6.542;2024-01-30T01:23:11;26.40;;;23.88;;
57107;SDS011;42987;52.916;6.542;2024-01-30T01:25:37;28.42;;;25.67;;
57107;SDS011;42987;52.916;6.542;2024-01-30T01:28:03;28.50;;;25.67;;
57107;SDS011;42987;52.916;6.542;2024-01-30T01:30:29;28.85;;;25.98;;
57107;SDS011;42987;52.916;6.542;2024-01-30T01:32:55;27.70;;;24.98;;
57107;SDS011;42987;52.916;6.542;2024-01-30T01:35:23;30.17;;;27.17;;
57107;SDS011;42987;52.916;6.542;2024-01-30T01:37:53;28.88;;;25.80;;
57107;SDS011;42987;52.916;6.542;2024-01-30T01:42:49;26.17;;;23.40;;
57107;SDS011;42987;52.916;6.542;2024-01-30T01:45:17;26.55;;;23.95;;
57107;SDS011;42987;52.916;6.542;2024-01-30T01:47:43;29.40;;;26.58;;
57107;SDS011;42987;52.916;6.542;2024-01-30T01:50:12;30.45;;;27.17;;
57107;SDS011;42987;52.916;6.542;2024-01-30T01:52:39;27.63;;;24.90;;
57107;SDS011;42987;52.916;6.542;2024-01-30T01:55:06;26.45;;;23.95;;
57107;SDS011;42987;52.916;6.542;2024-01-30T01:57:33;28.65;;;25.95;;
57107;SDS011;42987;52.916;6.542;2024-01-30T01:59:59;29.25;;;26.15;;
57107;SDS011;42987;52.916;6.542;2024-01-30T02:02:27;28.92;;;26.02;;
57107;SDS011;42987;52.916;6.542;2024-01-30T02:04:56;28.25;;;25.35;;
57107;SDS011;42987;52.916;6.542;2024-01-30T02:07:23;29.02;;;26.13;;
57107;SDS011;42987;52.916;6.542;2024-01-30T02:09:49;27.33;;;24.55;;
57107;SDS011;42987;52.916;6.542;2024-01-30T02:12:15;27.15;;;24.55;;
57107;SDS011;42987;52.916;6.542;2024-01-30T02:14:47;26.90;;;24.15;;
57107;SDS011;42987;52.916;6.542;2024-01-30T02:17:13;30.15;;;27.10;;
57107;SDS011;42987;52.916;6.542;2024-01-30T02:19:40;29.08;;;26.17;;
57107;SDS011;42987;52.916;6.542;2024-01-30T02:22:06;24.63;;;22.33;;
57107;SDS011;42987;52.916;6.542;2024-01-30T02:24:33;25.17;;;22.63;;
57107;SDS011;42987;52.916;6.542;2024-01-30T02:26:59;29.38;;;26.33;;
57107;SDS011;42987;52.916;6.542;2024-01-30T02:29:24;27.42;;;24.65;;
57107;SDS011;42987;52.916;6.542;2024-01-30T02:31:50;28.58;;;25.60;;
57107;SDS011;42987;52.916;6.542;2024-01-30T02:34:17;27.52;;;24.75;;
57107;SDS011;42987;52.916;6.542;2024-01-30T02:36:44;26.23;;;23.52;;
57107;SDS011;42987;52.916;6.542;2024-01-30T02:39:10;26.38;;;23.77;;
57107;SDS011;42987;52.916;6.542;2024-01-30T02:41:36;25.73;;;23.27;;
57107;SDS011;42987;52.916;6.542;2024-01-30T02:44:02;26.25;;;23.65;;
57107;SDS011;42987;52.916;6.542;2024-01-30T02:46:29;27.33;;;24.55;;
57107;SDS011;42987;52.916;6.542;2024-01-30T02:48:55;26.70;;;24.10;;
57107;SDS011;42987;52.916;6.542;2024-01-30T02:51:20;27.45;;;24.85;;
57107;SDS011;42987;52.916;6.542;2024-01-30T02:53:46;26.67;;;24.00;;
57107;SDS011;42987;52.916;6.542;2024-01-30T02:56:12;26.80;;;24.10;;
57107;SDS011;42987;52.916;6.542;2024-01-30T02:58:41;27.58;;;24.70;;
57107;SDS011;42987;52.916;6.542;2024-01-30T03:01:07;27.92;;;24.95;;
57107;SDS011;42987;52.916;6.542;2024-01-30T03:03:33;27.48;;;24.77;;
57107;SDS011;42987;52.916;6.542;2024-01-30T03:06:02;28.20;;;25.40;;
57107;SDS011;42987;52.916;6.542;2024-01-30T03:08:28;26.70;;;24.00;;
57107;SDS011;42987;52.916;6.542;2024-01-30T03:10:53;28.88;;;26.15;;
57107;SDS011;42987;52.916;6.542;2024-01-30T03:13:19;27.38;;;24.52;;
57107;SDS011;42987;52.916;6.542;2024-01-30T03:15:45;28.15;;;25.48;;
57107;SDS011;42987;52.916;6.542;2024-01-30T03:18:11;27.98;;;25.05;;
57107;SDS011;42987;52.916;6.542;2024-01-30T03:20:36;28.02;;;25.23;;
57107;SDS011;42987;52.916;6.542;2024-01-30T03:23:02;28.65;;;25.92;;
57107;SDS011;42987;52.916;6.542;2024-01-30T03:25:28;25.98;;;23.45;;
57107;SDS011;42987;52.916;6.542;2024-01-30T03:27:54;25.92;;;23.23;;
57107;SDS011;42987;52.916;6.542;2024-01-30T03:30:19;26.95;;;24.20;;
57107;SDS011;42987;52.916;6.542;2024-01-30T03:32:45;26.63;;;24.02;;
57107;SDS011;42987;52.916;6.542;2024-01-30T03:35:11;25.85;;;23.42;;
57107;SDS011;42987;52.916;6.542;2024-01-30T03:37:37;26.52;;;23.58;;
57107;SDS011;42987;52.916;6.542;2024-01-30T03:40:03;26.58;;;23.98;;
57107;SDS011;42987;52.916;6.542;2024-01-30T03:42:29;29.25;;;23.83;;
57107;SDS011;42987;52.916;6.542;2024-01-30T03:44:56;25.50;;;23.00;;
57107;SDS011;42987;52.916;6.542;2024-01-30T03:47:22;25.92;;;23.42;;
57107;SDS011;42987;52.916;6.542;2024-01-30T03:49:47;26.27;;;23.75;;
57107;SDS011;42987;52.916;6.542;2024-01-30T03:52:13;27.73;;;24.98;;
57107;SDS011;42987;52.916;6.542;2024-01-30T03:54:39;27.75;;;24.13;;
57107;SDS011;42987;52.916;6.542;2024-01-30T03:57:05;27.05;;;23.52;;
57107;SDS011;42987;52.916;6.542;2024-01-30T03:59:30;25.25;;;22.95;;
57107;SDS011;42987;52.916;6.542;2024-01-30T04:01:56;27.33;;;24.88;;
57107;SDS011;42987;52.916;6.542;2024-01-30T04:04:22;27.35;;;24.58;;
57107;SDS011;42987;52.916;6.542;2024-01-30T04:06:48;26.85;;;24.05;;
57107;SDS011;42987;52.916;6.542;2024-01-30T04:09:14;27.58;;;23.20;;
57107;SDS011;42987;52.916;6.542;2024-01-30T04:11:40;24.42;;;22.10;;
57107;SDS011;42987;52.916;6.542;2024-01-30T04:14:07;25.73;;;23.13;;
57107;SDS011;42987;52.916;6.542;2024-01-30T04:16:33;25.13;;;22.60;;
57107;SDS011;42987;52.916;6.542;2024-01-30T04:18:58;26.05;;;23.65;;
57107;SDS011;42987;52.916;6.542;2024-01-30T04:21:24;25.02;;;22.50;;
57107;SDS011;42987;52.916;6.542;2024-01-30T04:23:50;26.25;;;23.83;;
57107;SDS011;42987;52.916;6.542;2024-01-30T04:26:16;26.52;;;23.83;;
57107;SDS011;42987;52.916;6.542;2024-01-30T04:28:43;25.15;;;22.40;;
57107;SDS011;42987;52.916;6.542;2024-01-30T04:31:10;25.25;;;22.73;;
57107;SDS011;42987;52.916;6.542;2024-01-30T04:33:36;25.48;;;22.85;;
57107;SDS011;42987;52.916;6.542;2024-01-30T04:36:01;26.80;;;24.05;;
57107;SDS011;42987;52.916;6.542;2024-01-30T04:38:28;23.33;;;21.23;;
57107;SDS011;42987;52.916;6.542;2024-01-30T04:40:54;24.92;;;22.48;;
57107;SDS011;42987;52.916;6.542;2024-01-30T04:43:20;25.30;;;22.70;;
57107;SDS011;42987;52.916;6.542;2024-01-30T04:45:47;23.98;;;21.58;;
57107;SDS011;42987;52.916;6.542;2024-01-30T04:48:12;23.92;;;21.48;;
57107;SDS011;42987;52.916;6.542;2024-01-30T04:50:38;22.98;;;20.77;;
57107;SDS011;42987;52.916;6.542;2024-01-30T04:53:04;24.02;;;21.63;;
57107;SDS011;42987;52.916;6.542;2024-01-30T04:55:30;22.73;;;20.33;;
57107;SDS011;42987;52.916;6.542;2024-01-30T04:57:56;24.10;;;21.90;;
57107;SDS011;42987;52.916;6.542;2024-01-30T05:00:22;23.30;;;20.80;;
57107;SDS011;42987;52.916;6.542;2024-01-30T05:02:47;22.90;;;20.50;;
57107;SDS011;42987;52.916;6.542;2024-01-30T05:05:13;22.63;;;20.42;;
57107;SDS011;42987;52.916;6.542;2024-01-30T05:07:40;22.25;;;19.90;;
57107;SDS011;42987;52.916;6.542;2024-01-30T05:10:06;23.00;;;20.70;;
57107;SDS011;42987;52.916;6.542;2024-01-30T05:12:33;22.73;;;20.52;;
57107;SDS011;42987;52.916;6.542;2024-01-30T05:14:59;22.17;;;19.88;;
57107;SDS011;42987;52.916;6.542;2024-01-30T05:17:25;23.45;;;21.17;;
57107;SDS011;42987;52.916;6.542;2024-01-30T05:19:50;21.33;;;19.30;;
57107;SDS011;42987;52.916;6.542;2024-01-30T05:22:16;21.75;;;19.63;;
57107;SDS011;42987;52.916;6.542;2024-01-30T05:24:44;22.50;;;20.08;;
57107;SDS011;42987;52.916;6.542;2024-01-30T05:27:10;22.92;;;20.23;;
57107;SDS011;42987;52.916;6.542;2024-01-30T05:29:35;21.00;;;18.83;;
57107;SDS011;42987;52.916;6.542;2024-01-30T05:32:02;25.10;;;22.40;;
57107;SDS011;42987;52.916;6.542;2024-01-30T05:34:28;23.33;;;21.02;;
57107;SDS011;42987;52.916;6.542;2024-01-30T05:36:57;22.45;;;20.23;;
57107;SDS011;42987;52.916;6.542;2024-01-30T05:39:23;23.17;;;19.75;;
57107;SDS011;42987;52.916;6.542;2024-01-30T05:41:48;21.77;;;19.67;;
57107;SDS011;42987;52.916;6.542;2024-01-30T05:44:17;22.02;;;19.73;;
57107;SDS011;42987;52.916;6.542;2024-01-30T05:46:46;23.33;;;20.90;;
57107;SDS011;42987;52.916;6.542;2024-01-30T05:49:12;21.83;;;19.63;;
57107;SDS011;42987;52.916;6.542;2024-01-30T05:51:38;21.27;;;18.92;;
57107;SDS011;42987;52.916;6.542;2024-01-30T05:54:04;21.67;;;19.58;;
57107;SDS011;42987;52.916;6.542;2024-01-30T05:56:29;21.70;;;19.35;;
57107;SDS011;42987;52.916;6.542;2024-01-30T05:58:55;22.10;;;19.77;;
57107;SDS011;42987;52.916;6.542;2024-01-30T06:01:21;21.40;;;19.30;;
57107;SDS011;42987;52.916;6.542;2024-01-30T06:03:47;21.15;;;19.17;;
57107;SDS011;42987;52.916;6.542;2024-01-30T06:06:13;21.52;;;19.33;;
57107;SDS011;42987;52.916;6.542;2024-01-30T06:08:39;21.92;;;19.63;;
57107;SDS011;42987;52.916;6.542;2024-01-30T06:11:04;21.63;;;19.50;;
57107;SDS011;42987;52.916;6.542;2024-01-30T06:13:30;21.42;;;19.02;;
57107;SDS011;42987;52.916;6.542;2024-01-30T06:15:57;20.70;;;18.60;;
57107;SDS011;42987;52.916;6.542;2024-01-30T06:18:22;19.90;;;17.85;;
57107;SDS011;42987;52.916;6.542;2024-01-30T06:20:48;20.27;;;18.17;;
57107;SDS011;42987;52.916;6.542;2024-01-30T06:23:14;21.23;;;18.40;;
57107;SDS011;42987;52.916;6.542;2024-01-30T06:25:40;20.75;;;18.70;;
57107;SDS011;42987;52.916;6.542;2024-01-30T06:28:06;21.35;;;19.05;;
57107;SDS011;42987;52.916;6.542;2024-01-30T06:30:32;20.90;;;18.67;;
57107;SDS011;42987;52.916;6.542;2024-01-30T06:32:57;19.58;;;17.58;;
57107;SDS011;42987;52.916;6.542;2024-01-30T06:35:23;20.75;;;18.65;;
57107;SDS011;42987;52.916;6.542;2024-01-30T06:37:49;19.25;;;17.35;;
57107;SDS011;42987;52.916;6.542;2024-01-30T06:40:15;21.45;;;18.00;;
57107;SDS011;42987;52.916;6.542;2024-01-30T06:42:40;19.75;;;17.70;;
57107;SDS011;42987;52.916;6.542;2024-01-30T06:45:06;21.20;;;18.83;;
57107;SDS011;42987;52.916;6.542;2024-01-30T06:47:33;20.55;;;18.52;;
57107;SDS011;42987;52.916;6.542;2024-01-30T06:49:58;19.08;;;16.98;;
57107;SDS011;42987;52.916;6.542;2024-01-30T06:52:24;20.13;;;18.15;;
57107;SDS011;42987;52.916;6.542;2024-01-30T06:54:50;18.95;;;16.95;;
57107;SDS011;42987;52.916;6.542;2024-01-30T06:57:16;20.50;;;18.25;;
57107;SDS011;42987;52.916;6.542;2024-01-30T06:59:42;18.75;;;16.95;;
57107;SDS011;42987;52.916;6.542;2024-01-30T07:02:08;18.50;;;16.70;;
57107;SDS011;42987;52.916;6.542;2024-01-30T07:04:35;18.55;;;16.55;;
57107;SDS011;42987;52.916;6.542;2024-01-30T07:07:05;20.02;;;18.02;;
57107;SDS011;42987;52.916;6.542;2024-01-30T07:09:31;18.35;;;16.55;;
57107;SDS011;42987;52.916;6.542;2024-01-30T07:11:57;19.02;;;16.90;;
57107;SDS011;42987;52.916;6.542;2024-01-30T07:14:28;20.05;;;17.95;;
57107;SDS011;42987;52.916;6.542;2024-01-30T07:16:54;21.15;;;18.95;;
57107;SDS011;42987;52.916;6.542;2024-01-30T07:19:20;19.08;;;17.08;;
57107;SDS011;42987;52.916;6.542;2024-01-30T07:21:45;19.90;;;17.70;;
57107;SDS011;42987;52.916;6.542;2024-01-30T07:24:11;19.20;;;17.33;;
57107;SDS011;42987;52.916;6.542;2024-01-30T07:26:37;19.92;;;17.67;;
57107;SDS011;42987;52.916;6.542;2024-01-30T07:29:03;18.90;;;17.00;;
57107;SDS011;42987;52.916;6.542;2024-01-30T07:31:29;18.90;;;17.00;;
57107;SDS011;42987;52.916;6.542;2024-01-30T07:33:54;18.52;;;16.63;;
57107;SDS011;42987;52.916;6.542;2024-01-30T07:36:20;21.65;;;17.77;;
57107;SDS011;42987;52.916;6.542;2024-01-30T07:38:46;19.95;;;17.77;;
57107;SDS011;42987;52.916;6.542;2024-01-30T07:41:12;18.60;;;16.75;;
57107;SDS011;42987;52.916;6.542;2024-01-30T07:43:38;19.85;;;17.77;;
57107;SDS011;42987;52.916;6.542;2024-01-30T07:46:04;18.50;;;16.77;;
57107;SDS011;42987;52.916;6.542;2024-01-30T07:48:34;19.77;;;17.77;;
57107;SDS011;42987;52.916;6.542;2024-01-30T07:51:00;19.52;;;17.50;;
57107;SDS011;42987;52.916;6.542;2024-01-30T07:53:28;20.33;;;17.70;;
57107;SDS011;42987;52.916;6.542;2024-01-30T07:55:53;19.40;;;17.38;;
57107;SDS011;42987;52.916;6.542;2024-01-30T07:58:19;19.65;;;17.65;;
57107;SDS011;42987;52.916;6.542;2024-01-30T08:00:45;18.17;;;16.27;;
57107;SDS011;42987;52.916;6.542;2024-01-30T08:03:11;18.98;;;16.90;;
57107;SDS011;42987;52.916;6.542;2024-01-30T08:05:37;19.63;;;17.30;;
57107;SDS011;42987;52.916;6.542;2024-01-30T08:08:04;18.92;;;16.98;;
57107;SDS011;42987;52.916;6.542;2024-01-30T08:10:33;19.83;;;17.73;;
57107;SDS011;42987;52.916;6.542;2024-01-30T08:12:58;18.35;;;16.48;;
57107;SDS011;42987;52.916;6.542;2024-01-30T08:15:24;18.88;;;16.88;;
57107;SDS011;42987;52.916;6.542;2024-01-30T08:17:50;17.95;;;16.05;;
57107;SDS011;42987;52.916;6.542;2024-01-30T08:20:20;19.02;;;17.02;;
57107;SDS011;42987;52.916;6.542;2024-01-30T08:22:46;17.70;;;15.85;;
57107;SDS011;42987;52.916;6.542;2024-01-30T08:25:12;18.92;;;16.98;;
57107;SDS011;42987;52.916;6.542;2024-01-30T08:27:38;18.23;;;16.17;;
57107;SDS011;42987;52.916;6.542;2024-01-30T08:30:05;17.17;;;15.48;;
57107;SDS011;42987;52.916;6.542;2024-01-30T08:32:31;18.10;;;16.20;;
57107;SDS011;42987;52.916;6.542;2024-01-30T08:35:00;17.70;;;15.80;;
57107;SDS011;42987;52.916;6.542;2024-01-30T08:37:29;18.58;;;16.55;;
57107;SDS011;42987;52.916;6.542;2024-01-30T08:39:58;18.30;;;16.30;;
57107;SDS011;42987;52.916;6.542;2024-01-30T08:42:23;16.67;;;15.05;;
57107;SDS011;42987;52.916;6.542;2024-01-30T08:44:50;18.70;;;16.23;;
57107;SDS011;42987;52.916;6.542;2024-01-30T08:47:18;18.42;;;16.45;;
57107;SDS011;42987;52.916;6.542;2024-01-30T08:49:44;17.88;;;16.02;;
57107;SDS011;42987;52.916;6.542;2024-01-30T08:52:10;18.05;;;15.18;;
57107;SDS011;42987;52.916;6.542;2024-01-30T08:54:36;17.20;;;15.40;;
57107;SDS011;42987;52.916;6.542;2024-01-30T08:57:02;19.65;;;16.58;;
57107;SDS011;42987;52.916;6.542;2024-01-30T08:59:29;17.63;;;15.68;;
57107;SDS011;42987;52.916;6.542;2024-01-30T09:01:58;19.48;;;16.00;;
57107;SDS011;42987;52.916;6.542;2024-01-30T09:04:24;16.55;;;14.95;;
57107;SDS011;42987;52.916;6.542;2024-01-30T09:06:50;19.90;;;15.63;;
57107;SDS011;42987;52.916;6.542;2024-01-30T09:09:16;16.98;;;15.18;;
57107;SDS011;42987;52.916;6.542;2024-01-30T09:11:43;16.95;;;15.15;;
57107;SDS011;42987;52.916;6.542;2024-01-30T09:14:09;17.45;;;15.70;;
57107;SDS011;42987;52.916;6.542;2024-01-30T09:16:34;17.63;;;15.82;;
57107;SDS011;42987;52.916;6.542;2024-01-30T09:19:03;16.27;;;14.63;;
57107;SDS011;42987;52.916;6.542;2024-01-30T09:21:29;17.70;;;15.82;;
57107;SDS011;42987;52.916;6.542;2024-01-30T09:24:00;17.05;;;14.55;;
57107;SDS011;42987;52.916;6.542;2024-01-30T09:26:28;18.70;;;15.65;;
57107;SDS011;42987;52.916;6.542;2024-01-30T09:28:54;20.45;;;16.27;;
57107;SDS011;42987;52.916;6.542;2024-01-30T09:31:20;18.15;;;15.82;;
57107;SDS011;42987;52.916;6.542;2024-01-30T09:33:49;18.48;;;15.68;;
57107;SDS011;42987;52.916;6.542;2024-01-30T09:36:16;17.90;;;15.45;;
57107;SDS011;42987;52.916;6.542;2024-01-30T09:38:43;18.73;;;15.25;;
57107;SDS011;42987;52.916;6.542;2024-01-30T09:41:09;18.02;;;16.02;;
57107;SDS011;42987;52.916;6.542;2024-01-30T09:43:36;17.70;;;14.55;;
57107;SDS011;42987;52.916;6.542;2024-01-30T09:46:05;18.52;;;14.77;;
57107;SDS011;42987;52.916;6.542;2024-01-30T09:48:33;17.80;;;15.88;;
57107;SDS011;42987;52.916;6.542;2024-01-30T09:51:00;16.95;;;15.25;;
57107;SDS011;42987;52.916;6.542;2024-01-30T09:53:26;16.83;;;14.35;;
57107;SDS011;42987;52.916;6.542;2024-01-30T09:55:52;17.08;;;15.38;;
57107;SDS011;42987;52.916;6.542;2024-01-30T09:58:18;16.98;;;14.43;;
57107;SDS011;42987;52.916;6.542;2024-01-30T10:00:44;17.17;;;14.48;;
57107;SDS011;42987;52.916;6.542;2024-01-30T10:03:10;16.15;;;14.23;;
57107;SDS011;42987;52.916;6.542;2024-01-30T10:05:36;17.67;;;14.02;;
57107;SDS011;42987;52.916;6.542;2024-01-30T10:08:07;17.70;;;14.88;;
57107;SDS011;42987;52.916;6.542;2024-01-30T10:10:33;18.40;;;14.15;;
57107;SDS011;42987;52.916;6.542;2024-01-30T10:13:03;17.13;;;14.07;;
57107;SDS011;42987;52.916;6.542;2024-01-30T10:15:29;16.38;;;14.32;;
57107;SDS011;42987;52.916;6.542;2024-01-30T10:17:55;20.33;;;14.48;;
57107;SDS011;42987;52.916;6.542;2024-01-30T10:20:20;15.30;;;13.70;;
57107;SDS011;42987;52.916;6.542;2024-01-30T10:22:47;18.08;;;15.15;;
57107;SDS011;42987;52.916;6.542;2024-01-30T10:25:14;18.30;;;14.00;;
57107;SDS011;42987;52.916;6.542;2024-01-30T10:27:41;16.27;;;13.70;;
57107;SDS011;42987;52.916;6.542;2024-01-30T10:30:07;19.13;;;14.95;;
57107;SDS011;42987;52.916;6.542;2024-01-30T10:32:33;19.23;;;14.63;;
57107;SDS011;42987;52.916;6.542;2024-01-30T10:34:59;16.17;;;13.98;;
57107;SDS011;42987;52.916;6.542;2024-01-30T10:37:25;17.20;;;14.93;;
57107;SDS011;42987;52.916;6.542;2024-01-30T10:39:54;16.98;;;13.80;;
57107;SDS011;42987;52.916;6.542;2024-01-30T10:42:25;17.85;;;14.48;;
57107;SDS011;42987;52.916;6.542;2024-01-30T10:44:57;19.23;;;14.68;;
57107;SDS011;42987;52.916;6.542;2024-01-30T10:47:32;22.13;;;14.52;;
57107;SDS011;42987;52.916;6.542;2024-01-30T10:50:01;16.90;;;14.82;;
57107;SDS011;42987;52.916;6.542;2024-01-30T10:52:31;17.20;;;15.30;;
57107;SDS011;42987;52.916;6.542;2024-01-30T10:54:58;16.45;;;14.55;;
57107;SDS011;42987;52.916;6.542;2024-01-30T10:57:25;18.15;;;15.45;;
57107;SDS011;42987;52.916;6.542;2024-01-30T10:59:56;17.52;;;14.43;;
57107;SDS011;42987;52.916;6.542;2024-01-30T11:02:23;18.65;;;14.10;;
57107;SDS011;42987;52.916;6.542;2024-01-30T11:04:50;18.00;;;14.45;;
57107;SDS011;42987;52.916;6.542;2024-01-30T11:07:24;17.67;;;14.57;;
57107;SDS011;42987;52.916;6.542;2024-01-30T11:12:23;16.02;;;14.32;;
57107;SDS011;42987;52.916;6.542;2024-01-30T11:14:50;18.95;;;15.65;;
57107;SDS011;42987;52.916;6.542;2024-01-30T11:17:40;18.83;;;15.43;;
57107;SDS011;42987;52.916;6.542;2024-01-30T11:20:16;20.65;;;15.50;;
57107;SDS011;42987;52.916;6.542;2024-01-30T11:22:51;20.70;;;15.93;;
57107;SDS011;42987;52.916;6.542;2024-01-30T11:25:19;19.88;;;16.45;;
57107;SDS011;42987;52.916;6.542;2024-01-30T11:27:46;22.73;;;15.82;;
57107;SDS011;42987;52.916;6.542;2024-01-30T11:33:02;23.40;;;17.38;;
57107;SDS011;42987;52.916;6.542;2024-01-30T11:35:37;21.45;;;17.60;;
57107;SDS011;42987;52.916;6.542;2024-01-30T11:38:05;21.83;;;16.33;;
57107;SDS011;42987;52.916;6.542;2024-01-30T11:40:32;22.85;;;17.38;;
57107;SDS011;42987;52.916;6.542;2024-01-30T11:42:59;19.83;;;16.77;;
57107;SDS011;42987;52.916;6.542;2024-01-30T11:45:30;22.33;;;17.92;;
57107;SDS011;42987;52.916;6.542;2024-01-30T11:47:56;20.83;;;17.77;;
57107;SDS011;42987;52.916;6.542;2024-01-30T11:50:23;23.67;;;17.42;;
57107;SDS011;42987;52.916;6.542;2024-01-30T11:52:50;19.40;;;17.15;;
57107;SDS011;42987;52.916;6.542;2024-01-30T11:55:16;21.80;;;17.77;;
57107;SDS011;42987;52.916;6.542;2024-01-30T11:57:42;19.33;;;17.25;;
57107;SDS011;42987;52.916;6.542;2024-01-30T12:00:15;19.85;;;17.75;;
57107;SDS011;42987;52.916;6.542;2024-01-30T12:02:42;21.30;;;17.35;;
57107;SDS011;42987;52.916;6.542;2024-01-30T12:05:09;23.40;;;18.02;;
57107;SDS011;42987;52.916;6.542;2024-01-30T12:07:38;20.27;;;18.15;;
57107;SDS011;42987;52.916;6.542;2024-01-30T12:10:04;21.48;;;17.38;;
57107;SDS011;42987;52.916;6.542;2024-01-30T12:12:30;23.77;;;14.55;;
57107;SDS011;42987;52.916;6.542;2024-01-30T12:14:57;21.38;;;13.40;;
57107;SDS011;42987;52.916;6.542;2024-01-30T12:17:32;21.17;;;13.43;;
57107;SDS011;42987;52.916;6.542;2024-01-30T12:20:09;17.58;;;12.90;;
57107;SDS011;42987;52.916;6.542;2024-01-30T12:22:43;18.88;;;12.45;;
57107;SDS011;42987;52.916;6.542;2024-01-30T12:25:11;16.38;;;10.20;;
57107;SDS011;42987;52.916;6.542;2024-01-30T12:30:10;12.52;;;7.50;;
57107;SDS011;42987;52.916;6.542;2024-01-30T12:32:42;11.75;;;6.45;;
57107;SDS011;42987;52.916;6.542;2024-01-30T12:35:14;11.07;;;4.93;;
57107;SDS011;42987;52.916;6.542;2024-01-30T12:37:45;8.50;;;4.60;;
57107;SDS011;42987;52.916;6.542;2024-01-30T12:40:13;8.07;;;4.10;;
57107;SDS011;42987;52.916;6.542;2024-01-30T12:42:43;8.50;;;3.80;;
57107;SDS011;42987;52.916;6.542;2024-01-30T12:45:15;7.45;;;3.30;;
57107;SDS011;42987;52.916;6.542;2024-01-30T12:47:41;5.30;;;2.30;;
57107;SDS011;42987;52.916;6.542;2024-01-30T12:50:07;3.95;;;2.05;;
57107;SDS011;42987;52.916;6.542;2024-01-30T12:52:33;6.18;;;2.50;;
57107;SDS011;42987;52.916;6.542;2024-01-30T12:55:00;4.57;;;2.38;;
57107;SDS011;42987;52.916;6.542;2024-01-30T12:57:26;5.47;;;2.40;;
57107;SDS011;42987;52.916;6.542;2024-01-30T12:59:52;4.03;;;1.95;;
57107;SDS011;42987;52.916;6.542;2024-01-30T13:02:18;4.65;;;2.20;;
57107;SDS011;42987;52.916;6.542;2024-01-30T13:04:44;4.55;;;2.10;;
57107;SDS011;42987;52.916;6.542;2024-01-30T13:07:09;6.43;;;2.55;;
57107;SDS011;42987;52.916;6.542;2024-01-30T13:09:36;4.05;;;1.70;;
57107;SDS011;42987;52.916;6.542;2024-01-30T13:12:03;5.55;;;2.42;;
57107;SDS011;42987;52.916;6.542;2024-01-30T13:14:29;4.50;;;1.88;;
57107;SDS011;42987;52.916;6.542;2024-01-30T13:16:55;4.20;;;1.73;;
57107;SDS011;42987;52.916;6.542;2024-01-30T13:19:20;4.82;;;2.10;;
57107;SDS011;42987;52.916;6.542;2024-01-30T13:21:46;4.90;;;2.10;;
57107;SDS011;42987;52.916;6.542;2024-01-30T13:24:13;5.18;;;2.40;;
57107;SDS011;42987;52.916;6.542;2024-01-30T13:26:39;4.03;;;1.90;;
57107;SDS011;42987;52.916;6.542;2024-01-30T13:29:05;3.47;;;1.52;;
57107;SDS011;42987;52.916;6.542;2024-01-30T13:31:33;3.03;;;1.65;;
57107;SDS011;42987;52.916;6.542;2024-01-30T13:33:59;4.13;;;1.67;;
57107;SDS011;42987;52.916;6.542;2024-01-30T13:36:28;4.70;;;2.00;;
57107;SDS011;42987;52.916;6.542;2024-01-30T13:38:54;3.15;;;1.60;;
57107;SDS011;42987;52.916;6.542;2024-01-30T13:41:20;5.40;;;2.30;;
57107;SDS011;42987;52.916;6.542;2024-01-30T13:43:47;5.68;;;2.00;;
57107;SDS011;42987;52.916;6.542;2024-01-30T13:46:14;4.32;;;1.77;;
57107;SDS011;42987;52.916;6.542;2024-01-30T13:48:40;5.45;;;2.22;;
57107;SDS011;42987;52.916;6.542;2024-01-30T13:51:05;3.50;;;1.98;;
57107;SDS011;42987;52.916;6.542;2024-01-30T13:53:31;5.00;;;2.17;;
57107;SDS011;42987;52.916;6.542;2024-01-30T13:55:57;4.90;;;2.15;;
57107;SDS011;42987;52.916;6.542;2024-01-30T13:58:23;5.25;;;2.85;;
57107;SDS011;42987;52.916;6.542;2024-01-30T14:00:49;7.40;;;3.55;;
57107;SDS011;42987;52.916;6.542;2024-01-30T14:03:14;7.55;;;4.57;;
57107;SDS011;42987;52.916;6.542;2024-01-30T14:05:40;5.43;;;3.58;;
57107;SDS011;42987;52.916;6.542;2024-01-30T14:08:06;6.32;;;3.70;;
57107;SDS011;42987;52.916;6.542;2024-01-30T14:10:34;8.68;;;3.40;;
57107;SDS011;42987;52.916;6.542;2024-01-30T14:13:02;6.97;;;3.30;;
57107;SDS011;42987;52.916;6.542;2024-01-30T14:15:28;6.55;;;2.80;;
57107;SDS011;42987;52.916;6.542;2024-01-30T14:17:54;6.75;;;3.08;;
57107;SDS011;42987;52.916;6.542;2024-01-30T14:20:20;5.65;;;2.67;;
57107;SDS011;42987;52.916;6.542;2024-01-30T14:22:46;6.40;;;2.50;;
57107;SDS011;42987;52.916;6.542;2024-01-30T14:25:12;5.90;;;2.67;;
57107;SDS011;42987;52.916;6.542;2024-01-30T14:27:38;6.20;;;2.67;;
57107;SDS011;42987;52.916;6.542;2024-01-30T14:30:04;6.22;;;3.10;;
57107;SDS011;42987;52.916;6.542;2024-01-30T14:32:30;5.95;;;3.17;;